Time;durP1;ratioP1;P1;durP2;ratioP2;P2;SDS_P1;SDS_P2;PMS_P1;PMS_P2;Temp;Humidity;BMP_temperature;BMP_pressure;BME280_temperature;BME280_humidity;BME280_pressure;Samples;Min_cycle;Max_cycle;Signal;HPM_P1;HPM_P2
2021/10/09 00:00:29;;;;;;;22.10;19.70;;;8.90;99.90;;;;;;4978707;28;20432;-66
2021/10/09 00:02:55;;;;;;;21.10;17.33;;;8.90;99.90;;;;;;4972738;28;20180;-66
2021/10/09 00:05:20;;;;;;;19.80;17.67;;;8.90;99.90;;;;;;4972834;28;20188;-65
2021/10/09 00:07:46;;;;;;;25.60;18.70;;;8.90;99.90;;;;;;4981176;28;20204;-66
2021/10/09 00:10:13;;;;;;;22.90;19.40;;;8.80;99.90;;;;;;4970933;28;20565;-66
2021/10/09 00:12:39;;;;;;;24.07;20.30;;;8.70;99.90;;;;;;4972971;28;20705;-66
2021/10/09 00:15:06;;;;;;;24.63;19.43;;;8.60;99.90;;;;;;4972815;28;20447;-66
2021/10/09 00:17:33;;;;;;;24.97;19.80;;;8.60;99.90;;;;;;4972112;28;20211;-66
2021/10/09 00:19:58;;;;;;;23.33;18.90;;;8.60;99.90;;;;;;4972888;28;20438;-66
2021/10/09 00:22:24;;;;;;;22.87;19.37;;;8.60;99.90;;;;;;4972403;28;20938;-66
2021/10/09 00:24:51;;;;;;;22.43;20.03;;;8.60;99.90;;;;;;4972439;28;20654;-66
2021/10/09 00:27:16;;;;;;;24.93;19.23;;;8.60;99.90;;;;;;4971527;28;20817;-67
2021/10/09 00:29:42;;;;;;;21.23;17.13;;;8.50;99.90;;;;;;4974055;28;20435;-66
2021/10/09 00:32:08;;;;;;;22.60;17.43;;;8.50;99.90;;;;;;4976515;28;20172;-66
2021/10/09 00:34:33;;;;;;;22.47;19.60;;;8.50;99.90;;;;;;4976411;28;20179;-67
2021/10/09 00:36:59;;;;;;;21.83;18.23;;;8.50;99.90;;;;;;4976429;28;20180;-63
2021/10/09 00:39:24;;;;;;;23.30;19.10;;;8.50;99.90;;;;;;4975539;28;20208;-63
2021/10/09 00:41:49;;;;;;;25.97;19.20;;;8.50;99.90;;;;;;4976534;28;20183;-63
2021/10/09 00:44:17;;;;;;;22.57;19.23;;;8.40;99.90;;;;;;4976194;28;20191;-63
2021/10/09 00:46:44;;;;;;;25.87;18.47;;;8.40;99.90;;;;;;4976272;28;20680;-64
2021/10/09 00:49:15;;;;;;;21.13;17.37;;;8.40;99.90;;;;;;4975746;28;20517;-63
2021/10/09 00:51:42;;;;;;;22.17;19.07;;;8.30;99.90;;;;;;4975919;28;20443;-64
2021/10/09 00:54:09;;;;;;;20.13;18.13;;;8.20;99.90;;;;;;4975338;28;20442;-63
2021/10/09 00:56:38;;;;;;;23.47;20.10;;;8.20;99.90;;;;;;4975985;28;20526;-63
2021/10/09 00:59:04;;;;;;;24.63;19.07;;;8.10;99.90;;;;;;4975542;28;20467;-63
2021/10/09 01:01:30;;;;;;;27.57;20.20;;;8.10;99.90;;;;;;4975849;28;20431;-63
2021/10/09 01:03:57;;;;;;;20.90;17.90;;;8.20;99.90;;;;;;4976010;28;20550;-63
2021/10/09 01:06:22;;;;;;;21.07;18.80;;;8.20;99.90;;;;;;4975619;28;20434;-63
2021/10/09 01:08:48;;;;;;;23.17;19.07;;;8.10;99.90;;;;;;4975526;28;20451;-63
2021/10/09 01:11:13;;;;;;;19.77;16.20;;;8.10;99.90;;;;;;4975814;28;20184;-63
2021/10/09 01:13:39;;;;;;;21.90;18.20;;;8.10;99.90;;;;;;4975641;28;20191;-64
2021/10/09 01:16:20;;;;;;;23.37;19.33;;;8.10;99.90;;;;;;4975832;28;20205;-63
2021/10/09 01:18:54;;;;;;;24.53;18.90;;;8.00;99.90;;;;;;4975218;28;20207;-63
2021/10/09 01:21:21;;;;;;;20.63;17.00;;;8.00;99.90;;;;;;4975408;28;20435;-64
2021/10/09 01:23:47;;;;;;;21.10;18.27;;;7.90;99.90;;;;;;4975396;28;20435;-63
2021/10/09 01:26:13;;;;;;;24.27;18.57;;;7.90;99.90;;;;;;4975612;28;20443;-63
2021/10/09 01:28:41;;;;;;;23.73;20.40;;;7.90;99.90;;;;;;4975063;28;20875;-63
2021/10/09 01:31:07;;;;;;;22.83;19.30;;;7.90;99.90;;;;;;4975556;28;20267;-63
2021/10/09 01:33:32;;;;;;;24.40;20.20;;;7.90;99.90;;;;;;4975159;28;20523;-63
2021/10/09 01:35:58;;;;;;;23.77;18.50;;;7.90;99.90;;;;;;4975363;28;20198;-63
2021/10/09 01:38:27;;;;;;;26.67;19.60;;;8.00;99.90;;;;;;4974840;28;20693;-63
2021/10/09 01:40:52;;;;;;;22.33;17.60;;;7.90;99.90;;;;;;4974500;28;20180;-63
2021/10/09 01:43:20;;;;;;;20.80;18.57;;;7.90;99.90;;;;;;4975290;28;20428;-63
2021/10/09 01:45:46;;;;;;;22.00;17.33;;;7.80;99.90;;;;;;4975350;28;20176;-64
2021/10/09 01:48:13;;;;;;;22.30;18.37;;;7.80;99.90;;;;;;4974769;28;20463;-63
2021/10/09 01:50:39;;;;;;;24.00;18.13;;;7.80;99.90;;;;;;4975115;28;20575;-64
2021/10/09 01:53:05;;;;;;;20.00;17.90;;;7.80;99.90;;;;;;4975022;28;20945;-64
2021/10/09 01:55:32;;;;;;;22.93;18.40;;;7.80;99.90;;;;;;4975061;28;20435;-63
2021/10/09 01:57:58;;;;;;;22.47;17.60;;;7.80;99.90;;;;;;4974686;28;20973;-63
2021/10/09 02:00:24;;;;;;;22.80;18.50;;;7.70;99.90;;;;;;4974948;28;20435;-63
2021/10/09 02:02:50;;;;;;;35.07;19.43;;;7.60;99.90;;;;;;4974867;28;20701;-63
2021/10/09 02:05:16;;;;;;;19.90;17.80;;;7.60;99.90;;;;;;4974812;28;20559;-63
2021/10/09 02:07:42;;;;;;;23.90;18.63;;;7.70;99.90;;;;;;4974430;28;20499;-64
2021/10/09 02:10:08;;;;;;;23.70;18.77;;;7.60;99.90;;;;;;4974624;28;20548;-65
2021/10/09 02:12:34;;;;;;;24.13;19.63;;;7.60;99.90;;;;;;4974855;28;20188;-65
2021/10/09 02:15:26;;;;;;;20.40;18.20;;;7.60;99.90;;;;;;4974468;28;20431;-63
2021/10/09 02:18:34;;;;;;;22.60;18.40;;;7.60;99.90;;;;;;4973958;28;20212;-63
2021/10/09 02:26:03;;;;;;;22.67;19.40;;;7.60;99.90;;;;;;4974566;28;21081;-63
2021/10/09 02:28:28;;;;;;;22.43;20.03;;;7.50;99.90;;;;;;4974183;28;20483;-63
2021/10/09 02:30:54;;;;;;;19.27;16.53;;;7.50;99.90;;;;;;4974145;28;20471;-63
2021/10/09 02:33:21;;;;;;;23.27;18.53;;;7.40;99.90;;;;;;4974432;28;20705;-63
2021/10/09 02:35:46;;;;;;;23.60;17.70;;;7.50;99.90;;;;;;4974288;28;20498;-64
2021/10/09 02:38:12;;;;;;;25.10;19.23;;;7.40;99.90;;;;;;4973659;28;20479;-64
2021/10/09 02:40:39;;;;;;;25.03;17.17;;;7.50;99.90;;;;;;4974374;28;20180;-64
2021/10/09 02:43:06;;;;;;;20.40;17.50;;;7.50;99.90;;;;;;4974095;28;20432;-63
2021/10/09 02:45:32;;;;;;;24.67;17.87;;;7.50;99.90;;;;;;4973977;28;20440;-63
2021/10/09 02:47:58;;;;;;;23.53;18.40;;;7.50;99.90;;;;;;4973570;28;20278;-63
2021/10/09 02:50:24;;;;;;;25.33;19.57;;;7.50;99.90;;;;;;4974100;28;20250;-63
2021/10/09 02:52:50;;;;;;;23.77;19.33;;;7.50;99.90;;;;;;4973032;28;20925;-63
2021/10/09 02:55:18;;;;;;;21.67;17.93;;;7.50;99.90;;;;;;4973941;28;20267;-64
2021/10/09 02:57:44;;;;;;;19.93;17.53;;;7.50;99.90;;;;;;4973572;28;20204;-63
2021/10/09 03:00:10;;;;;;;21.60;17.00;;;7.40;99.90;;;;;;4973462;28;20959;-64
2021/10/09 03:02:36;;;;;;;21.70;18.00;;;7.40;99.90;;;;;;4973698;28;20231;-63
2021/10/09 03:05:03;;;;;;;21.43;18.07;;;7.30;99.90;;;;;;4973696;28;20851;-63
2021/10/09 03:07:28;;;;;;;21.47;18.53;;;7.30;99.90;;;;;;4973320;28;20185;-64
2021/10/09 03:09:54;;;;;;;23.93;18.00;;;7.30;99.90;;;;;;4973785;28;20432;-65
2021/10/09 03:12:19;;;;;;;20.23;16.43;;;7.30;99.90;;;;;;4973446;28;20177;-66
2021/10/09 03:14:45;;;;;;;21.60;16.37;;;7.20;99.90;;;;;;4973597;28;20595;-67
2021/10/09 03:17:10;;;;;;;22.40;19.13;;;7.20;99.90;;;;;;4973494;28;20192;-66
2021/10/09 03:19:36;;;;;;;23.27;19.10;;;7.20;99.90;;;;;;4973232;28;20585;-66
2021/10/09 03:22:02;;;;;;;23.70;18.57;;;7.20;99.90;;;;;;4973295;28;20646;-67
2021/10/09 03:24:27;;;;;;;19.87;16.00;;;7.10;99.90;;;;;;4973401;28;20183;-65
2021/10/09 03:26:53;;;;;;;22.30;18.30;;;7.10;99.90;;;;;;4973406;28;20432;-66
2021/10/09 03:29:18;;;;;;;21.00;17.67;;;7.10;99.90;;;;;;4973045;28;20208;-66
2021/10/09 03:31:44;;;;;;;20.10;17.00;;;7.10;99.90;;;;;;4973395;28;20184;-65
2021/10/09 03:34:09;;;;;;;20.60;18.50;;;7.00;99.90;;;;;;4973070;28;20203;-66
2021/10/09 03:36:35;;;;;;;19.80;16.43;;;6.90;99.90;;;;;;4973207;28;20187;-66
2021/10/09 03:39:03;;;;;;;22.60;17.63;;;6.90;99.90;;;;;;4972820;28;20586;-66
2021/10/09 03:41:29;;;;;;;20.30;16.80;;;6.90;99.90;;;;;;4973112;28;20638;-66
2021/10/09 03:43:54;;;;;;;20.90;18.07;;;6.90;99.90;;;;;;4990336;28;20498;-65
2021/10/09 03:46:26;;;;;;;25.50;17.60;;;6.90;99.90;;;;;;4988484;28;20180;-66
2021/10/09 03:49:18;;;;;;;25.00;18.20;;;6.90;99.90;;;;;;4972781;28;20287;-66
2021/10/09 03:54:28;;;;;;;23.63;19.47;;;6.90;99.90;;;;;;4959783;28;20439;-67
2021/10/09 03:56:54;;;;;;;20.70;18.43;;;7.00;99.90;;;;;;4973092;28;20440;-66
2021/10/09 03:59:19;;;;;;;20.93;18.70;;;6.90;99.90;;;;;;4972541;28;20259;-66
2021/10/09 04:01:45;;;;;;;31.97;19.37;;;6.90;99.90;;;;;;4972795;28;20705;-66
2021/10/09 04:04:10;;;;;;;27.80;21.03;;;6.90;99.90;;;;;;4973252;28;20191;-65
2021/10/09 04:06:36;;;;;;;25.43;18.03;;;7.00;99.90;;;;;;4977073;28;20177;-66
2021/10/09 04:09:02;;;;;;;23.20;19.80;;;7.00;99.90;;;;;;4976637;28;20562;-66
2021/10/09 04:11:28;;;;;;;24.33;19.10;;;7.00;99.90;;;;;;4977081;28;20427;-65
2021/10/09 04:13:53;;;;;;;19.63;17.50;;;6.90;99.90;;;;;;4976281;28;20195;-66
2021/10/09 04:16:19;;;;;;;24.47;18.77;;;6.80;99.90;;;;;;4976762;28;20563;-66
2021/10/09 04:18:44;;;;;;;22.80;18.27;;;6.80;99.90;;;;;;4976447;28;20203;-66
2021/10/09 04:21:10;;;;;;;22.30;18.73;;;6.70;99.90;;;;;;4976837;28;20176;-66
2021/10/09 04:23:35;;;;;;;20.60;18.27;;;6.80;99.90;;;;;;4976762;28;20172;-67
2021/10/09 04:26:01;;;;;;;27.43;19.27;;;6.80;99.90;;;;;;4976594;28;20720;-65
2021/10/09 04:28:26;;;;;;;23.33;17.70;;;6.80;99.90;;;;;;4976254;28;20211;-66
2021/10/09 04:30:52;;;;;;;25.90;17.90;;;6.80;99.90;;;;;;4976491;28;20187;-66
2021/10/09 04:33:17;;;;;;;25.70;17.30;;;6.80;99.90;;;;;;4976660;28;20176;-66
2021/10/09 04:35:43;;;;;;;21.23;18.00;;;6.80;99.90;;;;;;4976636;28;20246;-66
2021/10/09 04:38:08;;;;;;;21.63;17.37;;;6.70;99.90;;;;;;4975661;28;20270;-66
2021/10/09 04:40:34;;;;;;;20.70;18.13;;;6.70;99.90;;;;;;4976501;28;20611;-66
2021/10/09 04:43:00;;;;;;;24.57;19.30;;;6.70;99.90;;;;;;4976204;28;20177;-66
2021/10/09 04:45:25;;;;;;;25.03;20.27;;;6.70;99.90;;;;;;4976224;28;20645;-66
2021/10/09 04:47:51;;;;;;;22.97;17.53;;;6.70;99.90;;;;;;4975966;28;20681;-66
2021/10/09 04:50:16;;;;;;;21.70;17.23;;;6.80;99.90;;;;;;4975843;28;20667;-66
2021/10/09 04:52:42;;;;;;;22.13;17.30;;;6.80;99.90;;;;;;4976189;28;20565;-67
2021/10/09 04:55:08;;;;;;;22.60;17.07;;;6.80;99.90;;;;;;4976363;28;20183;-66
2021/10/09 04:57:33;;;;;;;22.37;19.40;;;6.80;99.90;;;;;;4975754;28;20209;-66
2021/10/09 04:59:59;;;;;;;22.43;17.93;;;6.80;99.90;;;;;;4975823;28;20431;-66
2021/10/09 05:02:24;;;;;;;24.47;19.00;;;6.70;99.90;;;;;;4976032;28;20184;-66
2021/10/09 05:04:50;;;;;;;21.93;18.87;;;6.70;99.90;;;;;;4976067;28;20180;-66
2021/10/09 05:07:15;;;;;;;21.77;17.33;;;6.80;99.90;;;;;;4975597;28;20215;-66
2021/10/09 05:09:42;;;;;;;22.10;18.67;;;6.70;99.90;;;;;;4975673;28;20621;-66
2021/10/09 05:12:08;;;;;;;21.23;18.73;;;6.60;99.90;;;;;;4975581;28;20220;-67
2021/10/09 05:14:34;;;;;;;20.10;17.83;;;6.70;99.90;;;;;;4975638;28;20463;-66
2021/10/09 05:17:00;;;;;;;26.20;20.10;;;6.70;99.90;;;;;;4974734;28;20435;-67
2021/10/09 05:19:26;;;;;;;22.67;18.17;;;6.70;99.90;;;;;;4975400;28;21036;-65
2021/10/09 05:21:51;;;;;;;19.97;17.10;;;6.70;99.90;;;;;;4975529;28;20177;-67
2021/10/09 05:24:17;;;;;;;25.70;19.60;;;6.70;99.90;;;;;;4975750;28;20667;-67
2021/10/09 05:26:42;;;;;;;24.47;16.50;;;6.70;99.90;;;;;;4975504;28;20603;-66
2021/10/09 05:29:14;;;;;;;21.33;17.00;;;6.60;99.90;;;;;;4975216;28;20614;-66
2021/10/09 05:31:40;;;;;;;20.00;17.60;;;6.60;99.90;;;;;;4975560;28;20650;-66
2021/10/09 05:34:06;;;;;;;19.90;16.43;;;6.60;99.90;;;;;;4975484;28;20436;-66
2021/10/09 05:36:31;;;;;;;26.20;17.97;;;6.70;99.90;;;;;;4975419;28;20184;-66
2021/10/09 05:38:57;;;;;;;20.33;16.80;;;6.70;99.90;;;;;;4974998;28;20320;-65
2021/10/09 05:41:22;;;;;;;19.77;16.57;;;6.70;99.90;;;;;;4975273;28;20184;-66
2021/10/09 05:43:48;;;;;;;22.37;18.53;;;6.70;99.90;;;;;;4975543;28;20169;-66
2021/10/09 05:46:15;;;;;;;20.87;16.83;;;6.70;99.90;;;;;;4974939;28;20669;-66
2021/10/09 05:48:42;;;;;;;24.20;16.50;;;6.70;99.90;;;;;;4974838;28;20455;-65
2021/10/09 05:51:20;;;;;;;21.30;17.40;;;6.70;99.90;;;;;;4974921;28;20522;-65
2021/10/09 05:54:02;;;;;;;17.90;15.73;;;6.80;99.90;;;;;;4975108;28;20431;-65
2021/10/09 06:47:36;;;;;;;24.03;17.63;;;9.10;99.90;;;;;;4973336;28;20431;-66
2021/10/09 07:00:56;;;;;;;25.23;19.23;;;9.80;99.90;;;;;;4973927;28;20442;-67
2021/10/09 07:03:21;;;;;;;28.40;20.43;;;10.00;99.90;;;;;;4972634;28;20431;-67
2021/10/09 07:05:48;;;;;;;24.00;20.30;;;10.10;99.90;;;;;;4973754;28;20423;-68
2021/10/09 07:08:14;;;;;;;29.23;24.70;;;10.30;99.90;;;;;;4973440;28;20287;-66
2021/10/09 07:10:44;;;;;;;22.57;20.37;;;10.40;99.90;;;;;;4973590;28;20521;-66
2021/10/09 07:13:10;;;;;;;23.30;20.73;;;10.60;99.90;;;;;;4973566;28;20518;-66
2021/10/09 07:15:36;;;;;;;23.80;19.83;;;10.80;99.90;;;;;;4973319;28;20439;-66
2021/10/09 07:18:03;;;;;;;22.00;19.67;;;11.00;99.90;;;;;;4972959;28;20463;-66
2021/10/09 07:20:29;;;;;;;20.07;18.07;;;11.10;99.90;;;;;;4973179;28;20202;-65
2021/10/09 07:22:54;;;;;;;26.27;18.67;;;11.30;99.90;;;;;;4973275;28;20439;-65
2021/10/09 07:25:20;;;;;;;22.20;18.77;;;11.50;99.90;;;;;;4973311;28;20195;-66
2021/10/09 07:27:46;;;;;;;21.33;17.57;;;11.70;99.90;;;;;;4972479;28;20749;-66
2021/10/09 07:30:13;;;;;;;22.27;19.00;;;11.90;99.90;;;;;;4973370;28;20474;-66
2021/10/09 07:32:39;;;;;;;21.50;18.60;;;12.10;99.90;;;;;;4972713;28;20443;-66
2021/10/09 07:35:04;;;;;;;20.23;17.33;;;12.20;99.90;;;;;;4972966;28;20470;-66
2021/10/09 07:37:30;;;;;;;20.43;17.97;;;12.60;99.90;;;;;;4972249;28;20214;-66
2021/10/09 07:39:55;;;;;;;24.90;17.23;;;12.90;99.90;;;;;;4972698;28;20960;-66
2021/10/09 07:42:21;;;;;;;26.53;17.10;;;13.30;99.90;;;;;;4975975;28;20545;-66
2021/10/09 07:44:49;;;;;;;20.63;16.23;;;13.50;99.90;;;;;;4990505;28;20175;-67
2021/10/09 07:47:15;;;;;;;23.07;18.47;;;13.80;99.90;;;;;;4976598;28;20260;-65
2021/10/09 07:49:40;;;;;;;22.23;18.20;;;14.20;99.90;;;;;;4972175;28;20530;-64
2021/10/09 07:52:07;;;;;;;20.53;18.30;;;14.50;99.90;;;;;;4979197;28;20183;-64
2021/10/09 07:54:33;;;;;;;22.93;18.77;;;14.40;99.90;;;;;;4992751;28;20179;-63
2021/10/09 07:56:58;;;;;;;23.97;18.53;;;14.50;99.90;;;;;;4974482;28;21025;-63
2021/10/09 07:59:24;;;;;;;18.60;16.83;;;14.60;99.90;;;;;;4981166;28;20845;-65
2021/10/09 08:01:49;;;;;;;18.57;16.50;;;14.70;99.90;;;;;;4981131;28;20176;-64
2021/10/09 08:04:16;;;;;;;18.03;16.13;;;15.00;99.90;;;;;;4973041;28;20647;-64
2021/10/09 08:06:42;;;;;;;18.17;16.23;;;15.30;99.90;;;;;;4972238;28;20255;-64
2021/10/09 08:09:08;;;;;;;19.57;17.47;;;15.30;99.90;;;;;;4972570;28;20473;-66
2021/10/09 08:11:33;;;;;;;21.93;19.63;;;15.90;99.90;;;;;;4972126;28;20443;-67
2021/10/09 08:13:59;;;;;;;19.93;16.80;;;16.30;99.90;;;;;;4972648;28;20439;-65
2021/10/09 08:16:25;;;;;;;18.67;16.70;;;16.80;99.90;;;;;;4957098;28;20189;-64
2021/10/09 08:18:50;;;;;;;18.03;16.20;;;17.00;99.90;;;;;;4972138;28;20598;-64
2021/10/09 08:21:21;;;;;;;19.27;17.20;;;17.20;99.90;;;;;;4972218;28;20184;-64
2021/10/09 08:23:54;;;;;;;19.63;17.63;;;17.80;99.90;;;;;;4972579;28;20179;-64
2021/10/09 08:39:44;;;;;;;25.73;19.53;;;20.00;99.90;;;;;;4968711;28;20566;-65
2021/10/09 08:42:11;;;;;;;18.10;16.40;;;20.80;99.90;;;;;;4969153;28;20228;-65
2021/10/09 08:44:39;;;;;;;20.07;18.03;;;21.40;99.90;;;;;;4967131;28;20957;-64
2021/10/09 08:47:08;;;;;;;18.93;16.97;;;20.90;99.30;;;;;;4969393;28;20451;-65
2021/10/09 08:49:35;;;;;;;18.67;16.03;;;21.00;98.90;;;;;;4967930;28;20459;-64
2021/10/09 08:52:04;;;;;;;19.60;17.60;;;21.10;98.60;;;;;;4971965;28;20435;-65
2021/10/09 08:54:37;;;;;;;18.80;17.10;;;22.30;97.10;;;;;;4972516;28;20471;-65
2021/10/09 08:57:17;;;;;;;17.73;15.70;;;22.30;95.70;;;;;;4972290;28;20977;-64
2021/10/09 08:59:46;;;;;;;23.77;20.60;;;23.00;95.50;;;;;;4972289;28;20467;-65
2021/10/09 09:02:23;;;;;;;19.30;17.67;;;24.50;93.10;;;;;;4972100;28;20451;-65
2021/10/09 09:35:18;;;;;;;16.87;15.23;;;26.50;73.80;;;;;;4972011;28;20435;-67
2021/10/09 09:40:35;;;;;;;16.20;14.70;;;27.60;68.60;;;;;;4967674;28;20467;-68
2021/10/09 09:43:02;;;;;;;18.50;16.60;;;27.40;68.20;;;;;;4973071;28;20439;-68
2021/10/09 09:45:27;;;;;;;20.20;18.20;;;28.60;67.30;;;;;;4973568;28;20839;-68
2021/10/09 09:47:55;;;;;;;19.20;15.40;;;29.00;65.60;;;;;;4973134;28;20550;-68
2021/10/09 09:50:21;;;;;;;18.83;17.13;;;29.10;64.10;;;;;;4974293;28;20885;-68
2021/10/09 09:52:48;;;;;;;18.47;16.97;;;29.20;61.90;;;;;;4976248;28;20519;-69
2021/10/09 09:55:16;;;;;;;21.70;19.50;;;29.80;59.40;;;;;;4976193;28;20803;-70
2021/10/09 09:57:42;;;;;;;17.70;16.30;;;30.00;58.30;;;;;;4974054;28;20530;-69
2021/10/09 10:00:10;;;;;;;17.33;15.97;;;30.40;58.50;;;;;;4974581;28;20424;-67
2021/10/09 10:02:44;;;;;;;20.43;18.30;;;30.80;56.70;;;;;;4974136;28;20505;-72
2021/10/09 10:05:14;;;;;;;19.23;17.27;;;30.90;55.70;;;;;;4973998;28;21007;-72
2021/10/09 10:07:41;;;;;;;17.80;16.30;;;31.50;54.40;;;;;;4974167;28;20510;-73
2021/10/09 10:10:08;;;;;;;18.53;16.67;;;31.00;53.70;;;;;;4973434;28;20490;-66
2021/10/09 10:12:34;;;;;;;18.33;16.83;;;31.00;53.60;;;;;;4973761;28;20426;-69
2021/10/09 10:15:01;;;;;;;17.33;15.83;;;30.60;52.90;;;;;;4974677;28;20431;-69
2021/10/09 10:17:39;;;;;;;18.80;17.00;;;30.30;53.50;;;;;;4974111;28;20431;-67
2021/10/09 10:20:16;;;;;;;16.60;15.20;;;30.90;53.10;;;;;;4974667;28;20423;-66
2021/10/09 10:22:41;;;;;;;16.30;14.90;;;31.30;51.30;;;;;;4974440;28;20514;-66
2021/10/09 10:25:26;;;;;;;17.23;15.63;;;30.70;52.40;;;;;;4974201;28;21029;-69
2021/10/09 10:28:05;;;;;;;17.13;15.77;;;30.40;52.00;;;;;;4974035;28;20208;-67
2021/10/09 10:30:42;;;;;;;17.80;16.13;;;30.80;52.30;;;;;;4974284;28;20523;-67
2021/10/09 10:33:07;;;;;;;18.00;16.40;;;31.10;50.70;;;;;;4974069;28;20431;-67
2021/10/09 10:35:44;;;;;;;19.03;17.00;;;31.70;50.70;;;;;;4974379;28;20430;-66
2021/10/09 10:38:12;;;;;;;17.63;16.20;;;31.60;49.60;;;;;;4973766;28;20696;-67
2021/10/09 10:40:46;;;;;;;17.43;15.30;;;31.40;50.10;;;;;;4973463;28;20435;-67
2021/10/09 10:43:55;;;;;;;15.93;14.63;;;31.40;49.80;;;;;;4974149;28;20792;-67
2021/10/09 10:57:01;;;;;;;14.80;13.57;;;31.10;47.70;;;;;;4974063;28;20945;-66
2021/10/09 10:59:31;;;;;;;15.30;13.67;;;31.70;47.50;;;;;;4973605;28;20477;-66
2021/10/09 11:02:39;;;;;;;14.93;13.70;;;31.60;47.00;;;;;;4973654;28;20495;-67
2021/10/09 11:05:06;;;;;;;15.93;14.43;;;32.50;46.20;;;;;;4973357;28;20492;-67
2021/10/09 11:07:34;;;;;;;14.83;13.47;;;32.20;45.90;;;;;;4973445;28;20447;-67
2021/10/09 11:10:22;;;;;;;15.27;13.40;;;31.70;46.40;;;;;;4973631;28;20498;-68
2021/10/09 11:12:49;;;;;;;14.03;12.73;;;31.70;46.90;;;;;;4973631;28;20806;-68
2021/10/09 11:15:23;;;;;;;14.37;12.33;;;31.80;46.30;;;;;;4972963;28;21008;-68
2021/10/09 11:17:57;;;;;;;13.60;12.40;;;32.50;44.40;;;;;;4973238;28;20462;-68
2021/10/09 11:20:28;;;;;;;14.10;13.00;;;32.30;44.80;;;;;;4958308;28;20932;-68
2021/10/09 11:22:59;;;;;;;12.47;11.33;;;32.70;43.80;;;;;;4973124;28;20793;-68
2021/10/09 11:25:30;;;;;;;12.30;11.20;;;33.60;44.00;;;;;;4973556;28;20428;-68
2021/10/09 11:27:58;;;;;;;12.40;11.20;;;34.80;42.70;;;;;;4972908;28;20466;-68
2021/10/09 11:30:24;;;;;;;14.30;13.00;;;35.00;41.00;;;;;;4958172;28;20514;-68
2021/10/09 11:32:52;;;;;;;19.43;17.77;;;34.30;41.30;;;;;;4973152;28;20432;-68
2021/10/09 11:35:32;;;;;;;12.37;11.07;;;33.30;41.30;;;;;;4972993;28;21155;-68
2021/10/09 11:37:59;;;;;;;12.90;11.67;;;33.40;42.00;;;;;;4972610;28;20565;-68
2021/10/09 11:40:43;;;;;;;12.50;11.30;;;33.30;41.00;;;;;;4972872;28;20463;-68
2021/10/09 11:45:56;;;;;;;12.73;11.37;;;34.90;39.80;;;;;;4972926;28;20797;-68
2021/10/09 11:56:44;;;;;;;13.30;12.17;;;32.80;40.30;;;;;;4993407;28;20423;-68
2021/10/09 11:59:11;;;;;;;14.40;13.20;;;32.90;40.30;;;;;;4981305;28;20447;-68
2021/10/09 12:01:47;;;;;;;12.10;11.00;;;33.30;40.20;;;;;;4972761;28;20802;-68
2021/10/09 12:04:13;;;;;;;13.20;11.90;;;34.10;39.60;;;;;;4972749;28;20898;-68
2021/10/09 12:06:56;;;;;;;11.87;10.87;;;34.70;39.00;;;;;;4972695;28;20464;-68
2021/10/09 12:09:40;;;;;;;13.17;12.10;;;35.40;38.90;;;;;;4972623;28;20466;-68
2021/10/09 12:12:17;;;;;;;12.53;11.43;;;35.00;38.40;;;;;;4972815;28;20522;-68
2021/10/09 12:14:43;;;;;;;12.47;11.57;;;35.80;38.10;;;;;;4967529;28;20435;-68
2021/10/09 12:17:09;;;;;;;11.63;10.63;;;35.80;37.60;;;;;;4972479;28;20456;-68
2021/10/09 12:19:35;;;;;;;12.90;11.90;;;36.00;37.60;;;;;;4972399;28;20528;-68
2021/10/09 12:22:00;;;;;;;12.20;11.30;;;36.10;36.70;;;;;;4972431;28;20994;-68
2021/10/09 12:24:29;;;;;;;13.97;12.40;;;34.70;37.80;;;;;;4973036;28;20206;-68
2021/10/09 12:27:15;;;;;;;11.77;10.87;;;34.20;38.10;;;;;;4975860;28;20180;-68
2021/10/09 12:29:59;;;;;;;13.30;11.50;;;34.80;37.90;;;;;;4961642;28;20844;-68
2021/10/09 12:32:26;;;;;;;12.73;11.63;;;35.60;37.30;;;;;;4976797;28;20419;-68
2021/10/09 12:35:15;;;;;;;13.17;11.87;;;36.20;37.00;;;;;;4976219;28;20435;-68
2021/10/09 12:38:05;;;;;;;13.00;11.90;;;35.10;37.20;;;;;;4975898;28;20879;-68
2021/10/09 12:40:46;;;;;;;12.20;11.40;;;34.50;37.90;;;;;;4976309;28;20438;-68
2021/10/09 12:43:13;;;;;;;11.70;10.60;;;34.40;37.70;;;;;;4975913;28;20470;-68
2021/10/09 12:45:40;;;;;;;13.07;11.97;;;34.80;37.70;;;;;;4969744;28;20856;-68
2021/10/09 12:48:06;;;;;;;11.33;10.43;;;35.40;36.90;;;;;;4975778;28;20463;-68
2021/10/09 12:50:34;;;;;;;12.10;11.10;;;35.10;36.80;;;;;;4976061;28;20438;-68
2021/10/09 12:53:00;;;;;;;14.70;13.40;;;33.60;38.10;;;;;;4976048;28;20436;-67
2021/10/09 12:55:28;;;;;;;14.83;13.37;;;33.20;38.60;;;;;;4975746;28;20466;-67
2021/10/09 12:57:56;;;;;;;14.50;13.23;;;31.80;39.70;;;;;;4975631;28;20451;-67
2021/10/09 13:00:24;;;;;;;14.83;13.63;;;31.90;39.70;;;;;;4975755;28;20446;-67
2021/10/09 13:02:52;;;;;;;12.40;11.43;;;32.40;39.50;;;;;;4976203;28;20439;-68
2021/10/09 13:05:19;;;;;;;12.87;11.87;;;33.80;38.20;;;;;;4975817;28;20435;-68
2021/10/09 13:07:46;;;;;;;13.43;12.20;;;33.40;38.20;;;;;;4974642;28;20455;-68
2021/10/09 13:10:12;;;;;;;13.90;12.60;;;34.30;37.40;;;;;;4975326;28;20431;-68
2021/10/09 13:12:38;;;;;;;13.83;12.57;;;34.30;37.70;;;;;;4975762;28;20438;-67
2021/10/09 13:15:03;;;;;;;12.80;11.70;;;34.60;37.10;;;;;;4975796;28;20428;-68
2021/10/09 13:17:29;;;;;;;12.47;11.17;;;35.10;37.40;;;;;;4975108;28;20215;-67
2021/10/09 13:19:55;;;;;;;11.73;10.60;;;35.00;36.90;;;;;;4975594;28;20210;-67
2021/10/09 13:22:21;;;;;;;12.97;11.77;;;35.00;37.20;;;;;;4973381;28;20252;-68
2021/10/09 13:24:46;;;;;;;12.60;11.67;;;34.80;36.70;;;;;;4975339;28;20459;-68
2021/10/09 13:27:12;;;;;;;13.07;11.97;;;34.40;37.10;;;;;;4974936;28;20665;-68
2021/10/09 13:29:37;;;;;;;13.33;12.27;;;34.90;36.00;;;;;;4975454;28;20251;-67
2021/10/09 13:32:03;;;;;;;12.20;11.23;;;34.30;36.50;;;;;;4975543;28;20186;-67
2021/10/09 13:34:29;;;;;;;11.90;10.90;;;33.90;36.80;;;;;;4973453;28;20272;-67
2021/10/09 13:36:54;;;;;;;12.53;11.47;;;33.10;37.70;;;;;;4974240;28;20204;-67
2021/10/09 13:39:20;;;;;;;12.47;11.30;;;31.20;38.90;;;;;;4974919;28;20243;-67
2021/10/09 13:41:45;;;;;;;11.60;10.70;;;29.90;40.90;;;;;;4975239;28;20227;-68
2021/10/09 13:44:11;;;;;;;12.73;11.70;;;28.80;41.80;;;;;;4975219;28;20646;-68
2021/10/09 13:46:37;;;;;;;13.17;12.17;;;28.10;42.70;;;;;;4974221;28;20238;-67
2021/10/09 13:49:04;;;;;;;12.73;11.73;;;27.20;43.20;;;;;;4974503;28;20228;-67
2021/10/09 13:51:30;;;;;;;12.77;11.77;;;26.30;44.60;;;;;;4974957;28;20944;-67
2021/10/09 13:53:56;;;;;;;12.67;11.40;;;25.10;45.90;;;;;;4974960;28;20446;-67
2021/10/09 13:56:21;;;;;;;12.00;10.90;;;24.00;47.70;;;;;;4974987;28;20266;-67
2021/10/09 13:58:47;;;;;;;13.63;12.33;;;22.50;49.90;;;;;;4974594;28;20200;-67
2021/10/09 14:01:14;;;;;;;14.80;13.27;;;21.30;52.30;;;;;;4974771;28;20195;-66
2021/10/09 14:03:41;;;;;;;13.33;12.07;;;21.00;53.30;;;;;;4974731;28;20195;-66
2021/10/09 14:06:06;;;;;;;14.00;11.83;;;20.60;54.10;;;;;;4974770;28;20443;-66
2021/10/09 14:08:32;;;;;;;12.47;11.10;;;20.10;55.30;;;;;;4974495;28;20562;-66
2021/10/09 14:10:59;;;;;;;12.90;11.70;;;19.60;56.40;;;;;;4974772;28;20196;-66
2021/10/09 14:13:24;;;;;;;13.17;11.90;;;19.00;57.50;;;;;;4974880;28;20607;-66
2021/10/09 14:15:50;;;;;;;13.57;11.30;;;18.50;58.70;;;;;;4974473;28;20427;-66
2021/10/09 14:18:16;;;;;;;12.70;11.60;;;18.40;59.80;;;;;;4974300;28;20214;-66
2021/10/09 14:20:51;;;;;;;15.07;11.30;;;18.20;60.50;;;;;;4974508;28;20463;-66
2021/10/09 14:23:17;;;;;;;12.20;11.13;;;18.00;60.50;;;;;;4974499;28;20439;-66
2021/10/09 14:25:43;;;;;;;13.40;12.00;;;17.90;61.90;;;;;;4974289;28;20925;-66
2021/10/09 14:28:10;;;;;;;14.37;12.43;;;17.80;62.50;;;;;;4974010;28;20506;-66
2021/10/09 14:30:37;;;;;;;15.63;12.50;;;17.60;62.90;;;;;;4974154;28;20941;-66
2021/10/09 14:33:03;;;;;;;13.20;12.00;;;17.40;63.60;;;;;;4974439;28;20836;-66
2021/10/09 14:35:28;;;;;;;15.83;12.70;;;17.40;65.60;;;;;;4974275;28;20435;-66
2021/10/09 14:37:54;;;;;;;12.40;11.20;;;17.30;65.70;;;;;;4973893;28;21117;-66
2021/10/09 14:40:19;;;;;;;12.60;11.47;;;17.10;66.10;;;;;;4974280;28;20180;-66
2021/10/09 14:42:46;;;;;;;13.20;11.93;;;17.10;67.00;;;;;;4973788;28;20184;-66
2021/10/09 14:45:16;;;;;;;12.80;11.50;;;17.00;67.00;;;;;;4974083;28;20180;-65
2021/10/09 14:50:34;;;;;;;11.67;10.57;;;16.90;67.20;;;;;;4974204;28;20826;-66
2021/10/09 14:53:16;;;;;;;16.27;12.47;;;16.90;68.70;;;;;;4974137;28;20435;-66
2021/10/09 15:18:01;;;;;;;17.57;11.43;;;16.60;76.00;;;;;;4973040;28;20551;-66